createdAt,value
2019-03-22T00:00:31.842Z,7.10
2019-03-22T00:02:07.006Z,7.09
2019-03-22T00:03:42.311Z,7.10
2019-03-22T00:05:17.492Z,7.14
2019-03-22T00:06:52.793Z,7.26
2019-03-22T00:08:27.998Z,7.26
2019-03-22T00:10:03.393Z,7.23
2019-03-22T00:11:38.678Z,7.21
2019-03-22T00:13:13.854Z,7.15
2019-03-22T00:14:49.037Z,7.09
2019-03-22T00:16:24.228Z,7.04
2019-03-22T00:17:59.472Z,7.03
2019-03-22T00:19:34.714Z,6.97
2019-03-22T00:21:09.895Z,6.98
2019-03-22T00:22:45.110Z,6.99
2019-03-22T00:24:20.336Z,6.94
2019-03-22T00:25:55.585Z,6.86
2019-03-22T00:27:30.747Z,6.92
2019-03-22T00:29:05.930Z,6.89
2019-03-22T00:30:41.128Z,6.88
2019-03-22T00:32:16.312Z,6.83
2019-03-22T00:33:51.618Z,6.79
2019-03-22T00:35:26.796Z,6.72
2019-03-22T00:37:01.981Z,6.65
2019-03-22T00:38:37.166Z,6.66
2019-03-22T00:40:12.681Z,6.68
2019-03-22T00:41:48.855Z,6.70
2019-03-22T00:43:24.024Z,6.70
2019-03-22T00:44:59.210Z,6.61
2019-03-22T00:46:34.383Z,6.61
2019-03-22T00:48:09.584Z,6.61
2019-03-22T00:49:44.759Z,6.62
2019-03-22T00:51:19.940Z,6.59
2019-03-22T00:52:55.113Z,6.58
2019-03-22T00:54:30.297Z,6.55
2019-03-22T00:56:05.586Z,6.56
2019-03-22T00:57:40.820Z,6.54
2019-03-22T00:59:15.974Z,6.47
2019-03-22T01:00:52.439Z,6.40
2019-03-22T01:02:27.808Z,6.35
2019-03-22T01:04:03.098Z,6.36
2019-03-22T01:05:38.278Z,6.33
2019-03-22T01:07:13.449Z,6.42
2019-03-22T01:08:48.694Z,6.38
2019-03-22T01:10:23.887Z,6.37
2019-03-22T01:11:59.117Z,6.44
2019-03-22T01:13:34.338Z,6.40
2019-03-22T01:15:10.328Z,6.37
2019-03-22T01:16:45.500Z,6.32
2019-03-22T01:18:20.684Z,6.24
2019-03-22T01:19:55.916Z,6.30
2019-03-22T01:21:31.132Z,6.26
2019-03-22T01:23:06.301Z,6.35
2019-03-22T01:24:41.506Z,6.24
2019-03-22T01:26:16.689Z,6.20
2019-03-22T01:27:51.893Z,6.24
2019-03-22T01:29:27.068Z,6.23
2019-03-22T01:31:02.239Z,6.15
2019-03-22T01:32:37.430Z,6.17
2019-03-22T01:34:12.604Z,6.16
2019-03-22T01:35:47.777Z,6.11
2019-03-22T01:37:22.966Z,6.08
2019-03-22T01:38:58.152Z,6.03
2019-03-22T01:40:33.651Z,6.06
2019-03-22T01:42:09.788Z,6.15
2019-03-22T01:43:45.039Z,6.14
2019-03-22T01:45:20.332Z,6.10
2019-03-22T01:46:55.505Z,6.11
2019-03-22T01:48:30.979Z,6.08
2019-03-22T01:50:07.702Z,6.05
2019-03-22T01:51:42.881Z,6.10
2019-03-22T01:53:18.094Z,6.05
2019-03-22T01:54:53.282Z,5.97
2019-03-22T01:56:28.453Z,5.98
2019-03-22T01:58:03.708Z,6.01
2019-03-22T01:59:38.889Z,6.01
2019-03-22T02:01:14.066Z,5.96
2019-03-22T02:02:49.286Z,5.98
2019-03-22T02:04:24.469Z,5.97
2019-03-22T02:06:02.425Z,5.91
2019-03-22T02:07:37.612Z,5.93
2019-03-22T02:09:13.203Z,5.90
2019-03-22T02:10:48.378Z,5.87
2019-03-22T02:12:24.005Z,5.84
2019-03-22T02:13:59.228Z,5.87
2019-03-22T02:15:34.461Z,5.83
2019-03-22T02:17:09.638Z,5.89
2019-03-22T02:18:45.974Z,5.83
2019-03-22T02:20:27.235Z,5.82
2019-03-22T02:22:02.464Z,5.79
2019-03-22T02:23:37.679Z,5.77
2019-03-22T02:25:13.026Z,5.73
2019-03-22T02:26:48.200Z,5.69
2019-03-22T02:28:23.398Z,5.63
2019-03-22T02:29:58.563Z,5.59
2019-03-22T02:31:33.738Z,5.62
2019-03-22T02:33:08.934Z,5.63
2019-03-22T02:34:44.126Z,5.69
2019-03-22T02:36:19.324Z,5.63
2019-03-22T02:37:54.493Z,5.62
2019-03-22T02:39:29.922Z,5.56
2019-03-22T02:41:05.676Z,5.48
2019-03-22T02:42:40.882Z,5.54
2019-03-22T02:44:16.033Z,5.53
2019-03-22T02:45:51.230Z,5.62
2019-03-22T02:47:26.451Z,5.63
2019-03-22T02:49:01.652Z,5.53
2019-03-22T02:50:36.906Z,5.64
2019-03-22T02:52:12.105Z,5.53
2019-03-22T02:53:47.285Z,5.50
2019-03-22T02:55:22.473Z,5.51
2019-03-22T02:56:57.693Z,5.50
2019-03-22T02:58:32.880Z,5.40
2019-03-22T03:00:09.412Z,5.40
2019-03-22T03:01:44.604Z,5.41
2019-03-22T03:03:19.852Z,5.37
2019-03-22T03:04:55.112Z,5.34
2019-03-22T03:06:30.320Z,5.40
2019-03-22T03:08:05.571Z,5.37
2019-03-22T03:09:40.775Z,5.37
2019-03-22T03:11:15.956Z,5.27
2019-03-22T03:12:51.139Z,5.27
2019-03-22T03:14:26.368Z,5.25
2019-03-22T03:16:01.557Z,5.31
2019-03-22T03:17:36.782Z,5.24
2019-03-22T03:19:11.966Z,5.22
2019-03-22T03:20:47.174Z,5.13
2019-03-22T03:22:22.383Z,5.21
2019-03-22T03:23:57.584Z,5.20
2019-03-22T03:25:32.778Z,5.21
2019-03-22T03:27:07.984Z,5.19
2019-03-22T03:28:43.172Z,5.14
2019-03-22T03:30:19.355Z,5.13
2019-03-22T03:31:54.592Z,5.18
2019-03-22T03:33:29.893Z,5.30
2019-03-22T03:35:06.233Z,5.27
2019-03-22T03:36:41.499Z,5.26
2019-03-22T03:38:16.731Z,5.27
2019-03-22T03:39:51.918Z,5.14
2019-03-22T03:41:27.113Z,5.15
2019-03-22T03:43:02.371Z,5.21
2019-03-22T03:44:37.592Z,5.20
2019-03-22T03:46:12.910Z,5.14
2019-03-22T03:47:49.182Z,5.13
2019-03-22T03:49:24.366Z,5.06
2019-03-22T03:50:59.619Z,5.06
2019-03-22T03:52:34.790Z,5.09
2019-03-22T03:54:09.978Z,5.00
2019-03-22T03:55:45.176Z,5.05
2019-03-22T03:57:20.362Z,4.96
2019-03-22T03:58:55.582Z,4.95
2019-03-22T04:00:30.857Z,4.99
2019-03-22T04:02:06.057Z,4.98
2019-03-22T04:03:41.230Z,4.99
2019-03-22T04:05:16.424Z,4.97
2019-03-22T04:06:51.630Z,4.94
2019-03-22T04:08:26.809Z,4.93
2019-03-22T04:10:02.149Z,4.86
2019-03-22T04:11:37.472Z,4.86
2019-03-22T04:13:12.706Z,4.86
2019-03-22T04:14:47.927Z,4.83
2019-03-22T04:16:23.112Z,4.94
2019-03-22T04:17:58.347Z,4.93
2019-03-22T04:19:33.599Z,4.86
2019-03-22T04:21:08.792Z,4.79
2019-03-22T04:22:44.063Z,4.81
2019-03-22T04:24:19.251Z,4.73
2019-03-22T04:25:54.426Z,4.70
2019-03-22T04:27:29.634Z,4.73
2019-03-22T04:29:07.790Z,4.83
2019-03-22T04:30:41.709Z,4.81
2019-03-22T04:32:17.207Z,4.75
2019-03-22T04:33:52.400Z,4.75
2019-03-22T04:35:27.614Z,4.74
2019-03-22T04:37:02.808Z,4.70
2019-03-22T04:38:38.008Z,4.78
2019-03-22T04:40:26.978Z,4.74
2019-03-22T04:42:02.190Z,4.73
2019-03-22T04:43:37.443Z,4.67
2019-03-22T04:45:12.792Z,4.87
2019-03-22T04:46:48.070Z,4.83
2019-03-22T04:48:31.458Z,4.90
2019-03-22T04:50:07.016Z,4.96
2019-03-22T04:51:42.426Z,4.88
2019-03-22T04:53:21.801Z,4.78
2019-03-22T04:54:58.477Z,4.63
2019-03-22T04:56:35.141Z,4.65
2019-03-22T04:58:10.507Z,4.72
2019-03-22T04:59:47.654Z,4.71
2019-03-22T05:01:23.966Z,4.72
2019-03-22T05:02:59.652Z,4.69
2019-03-22T05:04:35.339Z,4.72
2019-03-22T05:06:11.548Z,4.75
2019-03-22T05:07:47.016Z,4.92
2019-03-22T05:09:23.303Z,4.97
2019-03-22T05:10:59.934Z,5.06
2019-03-22T05:12:35.248Z,5.09
2019-03-22T05:14:10.687Z,4.95
2019-03-22T05:15:46.335Z,5.08
2019-03-22T05:17:21.584Z,5.25
2019-03-22T05:18:57.841Z,5.16
2019-03-22T05:20:34.571Z,5.16
2019-03-22T05:22:11.829Z,5.05
2019-03-22T05:23:48.581Z,5.20
2019-03-22T05:25:23.942Z,5.23
2019-03-22T05:27:00.402Z,5.14
2019-03-22T05:28:35.685Z,5.12
2019-03-22T05:30:22.669Z,5.27
2019-03-22T05:32:04.605Z,5.35
2019-03-22T05:33:40.858Z,5.04
2019-03-22T05:35:15.979Z,5.02
2019-03-22T05:36:51.155Z,5.13
2019-03-22T05:38:26.355Z,5.28
2019-03-22T05:40:01.563Z,5.41
2019-03-22T05:41:36.843Z,5.37
2019-03-22T05:43:12.984Z,5.14
2019-03-22T05:44:48.236Z,5.26
2019-03-22T05:46:23.526Z,5.50
2019-03-22T05:47:59.668Z,5.16
2019-03-22T05:49:34.848Z,5.40
2019-03-22T05:51:10.056Z,5.09
2019-03-22T05:52:45.231Z,4.70
2019-03-22T05:54:20.413Z,4.88
2019-03-22T05:55:55.629Z,5.21
2019-03-22T05:57:30.829Z,4.78
2019-03-22T05:59:06.081Z,4.93
2019-03-22T06:00:41.271Z,4.93
2019-03-22T06:02:16.465Z,5.12
2019-03-22T06:03:51.654Z,5.16
2019-03-22T06:05:26.858Z,4.98
2019-03-22T06:07:02.019Z,5.34
2019-03-22T06:08:37.229Z,5.47
2019-03-22T06:10:12.550Z,5.67
2019-03-22T06:11:47.884Z,5.91
2019-03-22T06:13:23.077Z,5.49
2019-03-22T06:14:58.279Z,5.84
2019-03-22T06:16:33.463Z,5.87
2019-03-22T06:18:08.686Z,6.09
2019-03-22T06:19:43.901Z,5.98
2019-03-22T06:21:19.093Z,6.20
2019-03-22T06:22:54.288Z,6.12
2019-03-22T06:24:29.487Z,5.98
2019-03-22T06:26:04.690Z,6.11
2019-03-22T06:27:39.935Z,6.35
2019-03-22T06:29:15.190Z,6.60
2019-03-22T06:30:50.379Z,6.56
2019-03-22T06:32:25.582Z,6.75
2019-03-22T06:34:00.799Z,6.53
2019-03-22T06:35:36.021Z,6.62
2019-03-22T06:37:11.307Z,6.68
2019-03-22T06:38:46.517Z,6.80
2019-03-22T06:40:21.752Z,6.51
2019-03-22T06:41:56.958Z,6.51
2019-03-22T06:43:32.135Z,6.62
2019-03-22T06:45:07.817Z,6.77
2019-03-22T06:46:43.060Z,6.53
2019-03-22T06:48:18.322Z,6.43
2019-03-22T06:49:53.527Z,6.62
2019-03-22T06:51:28.830Z,7.07
2019-03-22T06:53:05.185Z,6.96
2019-03-22T06:54:40.384Z,6.85
2019-03-22T06:56:15.587Z,7.09
2019-03-22T06:57:50.785Z,7.01
2019-03-22T06:59:26.318Z,7.14
2019-03-22T07:01:01.508Z,7.06
2019-03-22T07:02:36.720Z,6.92
2019-03-22T07:04:11.910Z,6.91
2019-03-22T07:05:47.091Z,7.28
2019-03-22T07:07:22.545Z,7.26
2019-03-22T07:08:57.807Z,7.02
2019-03-22T07:10:32.975Z,7.24
2019-03-22T07:12:08.248Z,7.31
2019-03-22T07:13:43.465Z,7.72
2019-03-22T07:15:18.633Z,7.37
2019-03-22T07:16:53.837Z,8.43
2019-03-22T07:18:29.064Z,8.10
2019-03-22T07:20:04.662Z,8.10
2019-03-22T07:21:39.919Z,8.27
2019-03-22T07:23:15.109Z,8.79
2019-03-22T07:24:50.314Z,9.13
2019-03-22T07:26:25.520Z,9.13
2019-03-22T07:28:00.710Z,9.04
2019-03-22T07:29:35.880Z,8.84
2019-03-22T07:31:11.141Z,9.58
2019-03-22T07:32:47.477Z,9.97
2019-03-22T07:34:22.676Z,10.13
2019-03-22T07:35:57.857Z,9.28
2019-03-22T07:37:33.064Z,9.67
2019-03-22T07:39:08.858Z,8.97
2019-03-22T07:40:44.071Z,8.92
2019-03-22T07:42:19.402Z,9.01
2019-03-22T07:43:54.534Z,9.26
2019-03-22T07:45:29.789Z,9.55
2019-03-22T07:47:05.194Z,9.01
2019-03-22T07:48:40.411Z,9.07
2019-03-22T07:50:15.707Z,8.61
2019-03-22T07:51:50.929Z,8.90
2019-03-22T07:53:26.102Z,9.19
2019-03-22T07:55:01.276Z,9.01
2019-03-22T07:56:45.547Z,8.82
2019-03-22T07:58:20.860Z,9.25
2019-03-22T07:59:56.028Z,9.88
2019-03-22T08:01:31.235Z,10.40
2019-03-22T08:03:06.440Z,10.60
2019-03-22T08:04:41.638Z,10.54
2019-03-22T08:06:16.880Z,9.80
2019-03-22T08:07:52.075Z,10.20
2019-03-22T08:09:27.335Z,10.90
2019-03-22T08:11:02.574Z,10.43
2019-03-22T08:12:37.907Z,11.43
2019-03-22T08:14:13.251Z,11.67
2019-03-22T08:15:48.447Z,11.85
2019-03-22T08:17:23.667Z,11.08
2019-03-22T08:18:58.860Z,12.62
2019-03-22T08:20:34.103Z,12.57
2019-03-22T08:22:09.333Z,12.36
2019-03-22T08:23:44.551Z,13.35
2019-03-22T08:25:20.146Z,13.35
2019-03-22T08:26:55.457Z,13.78
2019-03-22T08:28:30.753Z,13.56
2019-03-22T08:30:06.708Z,12.72
2019-03-22T08:31:41.905Z,12.72
2019-03-22T08:33:17.252Z,13.28
2019-03-22T08:34:52.442Z,14.45
2019-03-22T08:36:27.611Z,13.85
2019-03-22T08:38:02.827Z,14.90
2019-03-22T08:39:38.040Z,13.71
2019-03-22T08:41:13.343Z,14.20
2019-03-22T08:42:48.504Z,14.29
2019-03-22T08:44:24.019Z,15.12
2019-03-22T08:45:59.216Z,14.73
2019-03-22T08:47:34.760Z,15.09
2019-03-22T08:49:10.102Z,14.40
2019-03-22T08:50:45.371Z,14.36
2019-03-22T08:52:20.645Z,14.42
2019-03-22T08:53:55.980Z,13.91
2019-03-22T08:55:31.191Z,15.26
2019-03-22T08:57:06.549Z,16.88
2019-03-22T08:58:41.860Z,16.01
2019-03-22T09:00:17.332Z,15.98
2019-03-22T09:01:52.532Z,16.78
2019-03-22T09:03:27.791Z,15.41
2019-03-22T09:05:02.977Z,15.91
2019-03-22T09:06:38.162Z,15.46
2019-03-22T09:08:15.995Z,14.90
2019-03-22T09:09:50.317Z,15.59
2019-03-22T09:11:25.873Z,15.56
2019-03-22T09:13:01.058Z,15.72
2019-03-22T09:14:36.219Z,15.04
2019-03-22T09:16:11.455Z,15.28
2019-03-22T09:17:47.714Z,15.68
2019-03-22T09:19:22.954Z,15.33
2019-03-22T09:20:58.181Z,15.43
2019-03-22T09:22:33.389Z,15.75
2019-03-22T09:24:08.552Z,16.30
2019-03-22T09:25:43.811Z,15.97
2019-03-22T09:27:19.039Z,17.20
2019-03-22T09:28:54.320Z,16.60
2019-03-22T09:30:32.251Z,16.03
2019-03-22T09:32:07.550Z,16.43
2019-03-22T09:33:42.756Z,16.71
2019-03-22T09:35:17.925Z,16.20
2019-03-22T09:36:53.200Z,16.90
2019-03-22T09:38:28.689Z,16.75
2019-03-22T09:40:04.350Z,17.14
2019-03-22T09:41:39.538Z,17.65
2019-03-22T09:43:14.772Z,17.68
2019-03-22T09:44:50.129Z,18.65
2019-03-22T09:46:25.353Z,17.89
2019-03-22T09:48:01.509Z,18.09
2019-03-22T09:49:37.478Z,18.14
2019-03-22T09:51:12.639Z,19.28
2019-03-22T09:52:47.942Z,18.34
2019-03-22T09:54:24.206Z,18.69
2019-03-22T09:55:59.410Z,17.82
2019-03-22T09:57:34.671Z,17.65
2019-03-22T09:59:09.954Z,17.35
2019-03-22T10:00:48.366Z,17.17
2019-03-22T10:02:22.080Z,17.60
2019-03-22T10:03:57.290Z,18.61
2019-03-22T10:05:32.606Z,17.03
2019-03-22T10:07:07.818Z,18.28
2019-03-22T10:08:43.044Z,18.49
2019-03-22T10:10:18.253Z,18.61
2019-03-22T10:11:53.431Z,18.17
2019-03-22T10:13:28.607Z,18.51
2019-03-22T10:15:03.889Z,18.01
2019-03-22T10:16:39.104Z,18.23
2019-03-22T10:18:14.298Z,17.61
2019-03-22T10:19:51.797Z,18.59
2019-03-22T10:21:27.100Z,18.59
2019-03-22T10:23:02.324Z,17.84
2019-03-22T10:24:38.517Z,18.22
2019-03-22T10:26:13.716Z,18.52
2019-03-22T10:27:48.897Z,18.89
2019-03-22T10:29:24.164Z,17.78
2019-03-22T10:30:59.376Z,18.47
2019-03-22T10:32:34.714Z,18.89
2019-03-22T10:34:09.916Z,19.23
2019-03-22T10:35:45.198Z,18.13
2019-03-22T10:37:20.465Z,18.48
2019-03-22T10:38:55.717Z,18.91
2019-03-22T10:40:30.922Z,18.35
2019-03-22T10:42:06.231Z,18.96
2019-03-22T10:43:41.429Z,19.91
2019-03-22T10:45:16.977Z,18.73
2019-03-22T10:46:52.183Z,19.39
2019-03-22T10:48:27.463Z,19.07
2019-03-22T10:50:02.620Z,18.97
2019-03-22T10:51:38.007Z,18.49
2019-03-22T10:53:13.270Z,18.62
2019-03-22T10:54:48.562Z,19.25
2019-03-22T10:56:25.062Z,18.64
2019-03-22T10:58:00.321Z,17.75
2019-03-22T10:59:35.528Z,17.41
2019-03-22T11:01:10.754Z,17.92
2019-03-22T11:02:45.965Z,18.07
2019-03-22T11:04:21.184Z,17.29
2019-03-22T11:05:56.362Z,17.60
2019-03-22T11:07:31.569Z,17.46
2019-03-22T11:09:08.746Z,17.20
2019-03-22T11:10:43.938Z,17.48
2019-03-22T11:12:19.147Z,16.85
2019-03-22T11:13:54.435Z,17.47
2019-03-22T11:15:29.766Z,17.22
2019-03-22T11:17:05.080Z,17.40
2019-03-22T11:18:40.337Z,17.46
2019-03-22T11:20:16.534Z,17.46
2019-03-22T11:21:51.743Z,17.26
2019-03-22T11:23:26.952Z,17.13
2019-03-22T11:25:02.154Z,17.18
2019-03-22T11:26:38.399Z,17.39
2019-03-22T11:28:13.647Z,17.09
2019-03-22T11:29:48.868Z,17.24
2019-03-22T11:31:28.581Z,16.95
2019-03-22T11:33:01.145Z,17.57
2019-03-22T11:34:37.469Z,17.57
2019-03-22T11:36:12.681Z,16.74
2019-03-22T11:37:47.961Z,17.05
2019-03-22T11:39:23.221Z,17.05
2019-03-22T11:40:58.424Z,17.33
2019-03-22T11:42:33.612Z,16.77
2019-03-22T11:44:08.916Z,16.96
2019-03-22T11:45:44.136Z,16.52
2019-03-22T11:47:19.336Z,16.60
2019-03-22T11:48:54.622Z,16.75
2019-03-22T11:50:29.938Z,16.68
2019-03-22T11:52:05.426Z,16.83
2019-03-22T11:53:40.662Z,17.04
2019-03-22T11:55:16.239Z,16.71
2019-03-22T11:56:52.595Z,16.65
2019-03-22T11:58:27.823Z,16.75
2019-03-22T12:00:05.051Z,17.07
2019-03-22T12:01:41.825Z,16.84
2019-03-22T12:03:17.053Z,16.71
2019-03-22T12:04:52.254Z,16.71
2019-03-22T12:06:27.570Z,16.77
2019-03-22T12:08:02.778Z,16.99
2019-03-22T12:09:37.950Z,17.07
2019-03-22T12:11:13.130Z,16.88
2019-03-22T12:12:48.619Z,16.71
2019-03-22T12:14:23.867Z,17.00
2019-03-22T12:15:59.063Z,16.81
2019-03-22T12:17:34.315Z,17.11
2019-03-22T12:19:09.528Z,16.99
2019-03-22T12:20:44.788Z,16.85
2019-03-22T12:22:20.007Z,17.01
2019-03-22T12:23:55.200Z,16.92
2019-03-22T12:25:30.449Z,16.79
2019-03-22T12:27:05.659Z,16.78
2019-03-22T12:28:40.867Z,16.91
2019-03-22T12:30:16.749Z,17.17
2019-03-22T12:31:51.958Z,16.96
2019-03-22T12:33:27.129Z,16.85
2019-03-22T12:35:02.363Z,16.90
2019-03-22T12:36:37.586Z,16.79
2019-03-22T12:38:12.916Z,16.94
2019-03-22T12:39:48.184Z,17.22
2019-03-22T12:41:23.387Z,17.42
2019-03-22T12:42:58.592Z,17.27
2019-03-22T12:44:33.849Z,16.97
2019-03-22T12:46:09.030Z,17.03
2019-03-22T12:47:44.223Z,16.89
2019-03-22T12:49:19.469Z,16.95
2019-03-22T12:50:54.696Z,16.81
2019-03-22T12:52:31.391Z,16.90
2019-03-22T12:54:07.731Z,17.10
2019-03-22T12:55:42.923Z,16.67
2019-03-22T12:57:18.116Z,16.86
2019-03-22T12:58:53.321Z,16.78
2019-03-22T13:00:28.636Z,17.04
2019-03-22T13:02:03.919Z,17.01
2019-03-22T13:03:39.125Z,16.92
2019-03-22T13:05:16.263Z,16.99
2019-03-22T13:06:53.125Z,17.09
2019-03-22T13:08:28.555Z,17.10
2019-03-22T13:10:04.647Z,17.26
2019-03-22T13:11:39.879Z,17.33
2019-03-22T13:13:15.081Z,17.31
2019-03-22T13:14:50.567Z,17.25
2019-03-22T13:16:25.850Z,17.34
2019-03-22T13:18:01.071Z,17.10
2019-03-22T13:19:36.281Z,17.16
2019-03-22T13:21:11.479Z,17.20
2019-03-22T13:22:46.752Z,17.16
2019-03-22T13:24:21.975Z,17.20
2019-03-22T13:25:57.173Z,17.43
2019-03-22T13:27:32.348Z,17.20
2019-03-22T13:29:07.587Z,17.15
2019-03-22T13:30:42.771Z,17.22
2019-03-22T13:32:17.973Z,17.35
2019-03-22T13:33:53.189Z,17.08
2019-03-22T13:35:28.503Z,17.23
2019-03-22T13:37:03.874Z,17.12
2019-03-22T13:38:39.148Z,17.33
2019-03-22T13:40:14.474Z,17.45
2019-03-22T13:41:49.804Z,17.45
2019-03-22T13:43:24.968Z,17.39
2019-03-22T13:45:00.338Z,17.27
2019-03-22T13:46:40.175Z,17.45
2019-03-22T13:48:12.579Z,17.43
2019-03-22T13:49:47.844Z,17.56
2019-03-22T13:51:23.079Z,17.33
2019-03-22T13:52:58.302Z,17.22
2019-03-22T13:54:33.508Z,17.41
2019-03-22T13:56:08.729Z,17.43
2019-03-22T13:57:43.953Z,17.32
2019-03-22T13:59:19.161Z,17.54
2019-03-22T14:00:54.428Z,17.65
2019-03-22T14:02:29.601Z,17.53
2019-03-22T14:04:04.837Z,17.75
2019-03-22T14:05:40.144Z,17.56
2019-03-22T14:07:15.429Z,17.50
2019-03-22T14:08:50.638Z,17.53
2019-03-22T14:10:33.436Z,17.52
2019-03-22T14:12:08.641Z,17.58
2019-03-22T14:13:43.832Z,17.59
2019-03-22T14:15:19.066Z,17.70
2019-03-22T14:16:54.243Z,17.65
2019-03-22T14:18:29.439Z,17.60
2019-03-22T14:20:11.263Z,17.64
2019-03-22T14:21:42.107Z,17.75
2019-03-22T14:23:17.328Z,17.82
2019-03-22T14:24:52.547Z,17.63
2019-03-22T14:26:27.726Z,17.53
2019-03-22T14:28:02.937Z,17.51
2019-03-22T14:29:38.150Z,17.36
2019-03-22T14:31:13.397Z,17.52
2019-03-22T14:32:48.675Z,17.56
2019-03-22T14:34:23.923Z,17.58
2019-03-22T14:35:59.149Z,17.54
2019-03-22T14:37:34.354Z,17.52
2019-03-22T14:39:09.794Z,17.46
2019-03-22T14:40:45.381Z,17.51
2019-03-22T14:42:20.613Z,17.72
2019-03-22T14:43:55.847Z,17.73
2019-03-22T14:45:32.216Z,17.80
2019-03-22T14:47:12.983Z,17.94
2019-03-22T14:48:48.991Z,17.60
2019-03-22T14:50:24.298Z,17.76
2019-03-22T14:51:59.489Z,17.67
2019-03-22T14:53:34.711Z,17.62
2019-03-22T14:55:11.149Z,17.69
2019-03-22T14:56:46.735Z,17.89
2019-03-22T14:58:22.048Z,17.62
2019-03-22T14:59:59.310Z,17.63
2019-03-22T15:01:34.746Z,17.74
2019-03-22T15:03:26.326Z,17.70
2019-03-22T15:05:01.528Z,17.78
2019-03-22T15:06:37.706Z,17.77
2019-03-22T15:08:12.906Z,17.86
2019-03-22T15:09:48.197Z,17.66
2019-03-22T15:11:23.467Z,17.73
2019-03-22T15:12:58.671Z,17.72
2019-03-22T15:14:53.394Z,17.67
2019-03-22T15:16:47.678Z,17.51
2019-03-22T15:18:34.650Z,17.60
2019-03-22T15:20:23.027Z,17.62
2019-03-22T15:22:14.246Z,17.63
2019-03-22T15:24:14.386Z,17.54
2019-03-22T15:26:07.506Z,17.72
2019-03-22T15:27:55.949Z,17.62
2019-03-22T15:29:40.500Z,17.59
2019-03-22T15:31:33.717Z,17.67
2019-03-22T15:33:34.132Z,17.53
2019-03-22T15:37:30.021Z,17.52
2019-03-22T15:39:29.591Z,17.59
2019-03-22T15:41:05.182Z,17.60
2019-03-22T15:42:40.459Z,17.42
2019-03-22T15:44:15.820Z,17.47
2019-03-22T15:45:51.163Z,17.43
2019-03-22T15:47:26.457Z,17.40
2019-03-22T15:49:01.622Z,17.40
2019-03-22T15:50:36.926Z,17.36
2019-03-22T15:52:12.122Z,17.44
2019-03-22T15:53:47.352Z,17.44
2019-03-22T15:55:22.658Z,17.47
2019-03-22T15:56:57.933Z,17.48
2019-03-22T15:58:34.231Z,17.41
2019-03-22T16:00:12.782Z,17.41
2019-03-22T16:01:49.069Z,17.43
2019-03-22T16:03:24.242Z,17.31
2019-03-22T16:04:59.481Z,17.31
2019-03-22T16:06:34.673Z,17.24
2019-03-22T16:08:09.855Z,17.42
2019-03-22T16:09:45.117Z,17.42
2019-03-22T16:11:20.398Z,17.36
2019-03-22T16:12:55.827Z,17.33
2019-03-22T16:14:31.532Z,17.37
2019-03-22T16:16:07.075Z,17.38
2019-03-22T16:17:42.367Z,17.32
2019-03-22T16:19:17.937Z,17.37
2019-03-22T16:20:59.877Z,17.23
2019-03-22T16:22:30.038Z,17.23
2019-03-22T16:24:05.221Z,17.23
2019-03-22T16:25:40.449Z,17.17
2019-03-22T16:27:15.723Z,17.20
2019-03-22T16:28:50.914Z,17.10
2019-03-22T16:30:26.146Z,17.17
2019-03-22T16:32:01.354Z,17.07
2019-03-22T16:33:36.695Z,17.11
2019-03-22T16:35:12.465Z,17.08
2019-03-22T16:36:50.784Z,17.01
2019-03-22T16:38:25.975Z,17.08
2019-03-22T16:40:01.263Z,17.08
2019-03-22T16:41:36.519Z,16.99
2019-03-22T16:43:11.712Z,16.89
2019-03-22T16:44:46.896Z,16.96
2019-03-22T16:46:22.157Z,16.90
2019-03-22T16:47:58.662Z,16.87
2019-03-22T16:49:33.935Z,16.78
2019-03-22T16:51:09.194Z,16.86
2019-03-22T16:52:44.377Z,16.78
2019-03-22T16:54:19.592Z,16.76
2019-03-22T16:55:54.784Z,16.72
2019-03-22T16:57:29.984Z,16.70
2019-03-22T16:59:06.326Z,16.60
2019-03-22T17:00:41.704Z,16.50
2019-03-22T17:02:17.181Z,16.50
2019-03-22T17:03:52.407Z,16.43
2019-03-22T17:05:27.679Z,16.43
2019-03-22T17:07:02.888Z,16.38
2019-03-22T17:08:38.081Z,16.17
2019-03-22T17:10:13.351Z,16.23
2019-03-22T17:11:48.574Z,16.23
2019-03-22T17:13:23.846Z,16.25
2019-03-22T17:14:59.123Z,16.26
2019-03-22T17:16:34.521Z,16.09
2019-03-22T17:18:09.718Z,16.08
2019-03-22T17:19:45.071Z,16.12
2019-03-22T17:21:20.284Z,16.00
2019-03-22T17:22:55.585Z,15.95
2019-03-22T17:24:30.850Z,16.01
2019-03-22T17:26:06.127Z,16.01
2019-03-22T17:27:41.328Z,15.90
2019-03-22T17:29:16.549Z,15.87
2019-03-22T17:30:51.819Z,15.65
2019-03-22T17:32:27.046Z,15.69
2019-03-22T17:34:02.232Z,15.69
2019-03-22T17:35:37.417Z,15.63
2019-03-22T17:37:12.618Z,15.47
2019-03-22T17:38:47.798Z,15.42
2019-03-22T17:40:22.988Z,15.42
2019-03-22T17:41:59.798Z,15.42
2019-03-22T17:43:36.216Z,15.44
2019-03-22T17:45:12.038Z,15.55
2019-03-22T17:46:47.231Z,15.35
2019-03-22T17:48:22.429Z,15.30
2019-03-22T17:49:57.709Z,15.03
2019-03-22T17:51:32.878Z,15.03
2019-03-22T17:53:08.164Z,15.10
2019-03-22T17:54:43.372Z,15.03
2019-03-22T17:56:18.696Z,15.11
2019-03-22T17:57:54.018Z,15.17
2019-03-22T17:59:29.218Z,14.93
2019-03-22T18:01:04.624Z,14.93
2019-03-22T18:02:39.824Z,14.97
2019-03-22T18:04:23.853Z,14.95
2019-03-22T18:05:51.935Z,14.79
2019-03-22T18:07:27.331Z,14.82
2019-03-22T18:09:02.528Z,14.82
2019-03-22T18:10:38.989Z,14.82
2019-03-22T18:12:14.248Z,14.68
2019-03-22T18:13:49.471Z,14.76
2019-03-22T18:15:24.677Z,14.76
2019-03-22T18:16:59.976Z,14.65
2019-03-22T18:18:35.182Z,14.58
2019-03-22T18:20:10.556Z,14.58
2019-03-22T18:21:45.738Z,14.45
2019-03-22T18:23:20.941Z,14.43
2019-03-22T18:24:56.155Z,14.44
2019-03-22T18:26:32.986Z,14.35
2019-03-22T18:28:09.044Z,14.41
2019-03-22T18:29:44.289Z,14.47
2019-03-22T18:31:19.514Z,14.47
2019-03-22T18:32:54.702Z,14.30
2019-03-22T18:34:34.221Z,14.15
2019-03-22T18:36:06.785Z,14.42
2019-03-22T18:37:41.960Z,14.03
2019-03-22T18:39:17.159Z,14.03
2019-03-22T18:40:52.635Z,14.10
2019-03-22T18:42:27.836Z,14.25
2019-03-22T18:44:03.015Z,14.12
2019-03-22T18:45:38.229Z,14.12
2019-03-22T18:47:13.448Z,14.17
2019-03-22T18:48:48.638Z,14.18
2019-03-22T18:50:24.966Z,14.17
2019-03-22T18:52:00.164Z,14.17
2019-03-22T18:53:35.445Z,14.03
2019-03-22T18:55:11.691Z,14.03
2019-03-22T18:56:46.945Z,13.98
2019-03-22T18:58:23.731Z,14.02
2019-03-22T18:59:59.191Z,13.85
2019-03-22T19:01:34.358Z,13.93
2019-03-22T19:03:09.573Z,13.93
2019-03-22T19:04:44.773Z,14.09
2019-03-22T19:06:21.806Z,14.09
2019-03-22T19:07:56.873Z,14.00
2019-03-22T19:09:32.183Z,13.86
2019-03-22T19:11:07.374Z,13.86
2019-03-22T19:12:42.586Z,13.87
2019-03-22T19:14:17.791Z,13.84
2019-03-22T19:15:52.979Z,13.84
2019-03-22T19:17:28.196Z,13.82
2019-03-22T19:19:03.402Z,13.82
2019-03-22T19:20:38.896Z,13.84
2019-03-22T19:22:14.135Z,13.83
2019-03-22T19:23:49.320Z,13.68
2019-03-22T19:25:24.562Z,13.79
2019-03-22T19:26:59.808Z,13.75
2019-03-22T19:28:35.043Z,13.75
2019-03-22T19:30:10.925Z,13.81
2019-03-22T19:31:46.160Z,13.79
2019-03-22T19:33:21.413Z,13.79
2019-03-22T19:34:56.605Z,13.70
2019-03-22T19:36:31.801Z,13.71
2019-03-22T19:38:06.996Z,13.66
2019-03-22T19:39:42.195Z,13.62
2019-03-22T19:41:17.404Z,13.33
2019-03-22T19:42:52.638Z,13.42
2019-03-22T19:44:27.839Z,13.60
2019-03-22T19:46:03.031Z,13.36
2019-03-22T19:47:38.229Z,13.26
2019-03-22T19:49:13.546Z,13.26
2019-03-22T19:50:48.769Z,13.34
2019-03-22T19:52:23.957Z,13.10
2019-03-22T19:53:59.155Z,13.10
2019-03-22T19:55:34.743Z,13.13
2019-03-22T19:57:09.936Z,13.08
2019-03-22T19:58:45.119Z,13.24
2019-03-22T20:00:20.828Z,13.15
2019-03-22T20:01:56.076Z,13.08
2019-03-22T20:03:31.269Z,12.94
2019-03-22T20:05:07.142Z,12.92
2019-03-22T20:06:43.319Z,13.05
2019-03-22T20:08:18.540Z,12.80
2019-03-22T20:09:53.708Z,12.80
2019-03-22T20:11:29.015Z,12.56
2019-03-22T20:13:04.292Z,12.64
2019-03-22T20:14:39.486Z,12.64
2019-03-22T20:16:14.667Z,12.40
2019-03-22T20:17:50.138Z,12.64
2019-03-22T20:19:25.387Z,12.30
2019-03-22T20:21:00.588Z,12.46
2019-03-22T20:22:35.938Z,12.27
2019-03-22T20:24:11.128Z,12.11
2019-03-22T20:25:46.393Z,12.26
2019-03-22T20:27:23.258Z,12.34
2019-03-22T20:28:58.443Z,11.91
2019-03-22T20:30:33.597Z,12.09
2019-03-22T20:32:08.851Z,12.12
2019-03-22T20:33:44.044Z,12.36
2019-03-22T20:35:19.232Z,12.35
2019-03-22T20:36:54.503Z,12.05
2019-03-22T20:38:29.730Z,12.04
2019-03-22T20:40:05.981Z,12.32
2019-03-22T20:41:41.250Z,12.49
2019-03-22T20:43:17.498Z,12.52
2019-03-22T20:44:52.755Z,12.49
2019-03-22T20:46:27.974Z,12.47
2019-03-22T20:48:03.175Z,12.47
2019-03-22T20:49:38.355Z,12.34
2019-03-22T20:51:13.848Z,12.40